sensor_id;sensor_type;location;lat;lon;timestamp;temperature;humidity
70246;SHT30;57637;49.272;8.590;2024-02-15T00:02:13;10.78;93.83
70246;SHT30;57637;49.272;8.590;2024-02-15T00:04:38;10.81;93.75
70246;SHT30;57637;49.272;8.590;2024-02-15T00:07:04;10.84;93.72
70246;SHT30;57637;49.272;8.590;2024-02-15T00:09:29;10.85;93.63
70246;SHT30;57637;49.272;8.590;2024-02-15T00:11:55;10.87;93.54
70246;SHT30;57637;49.272;8.590;2024-02-15T00:14:21;10.85;93.53
70246;SHT30;57637;49.272;8.590;2024-02-15T00:16:46;10.88;93.47
70246;SHT30;57637;49.272;8.590;2024-02-15T00:19:12;10.85;93.48
70246;SHT30;57637;49.272;8.590;2024-02-15T00:21:42;10.87;93.46
70246;SHT30;57637;49.272;8.590;2024-02-15T00:24:08;10.84;93.37
70246;SHT30;57637;49.272;8.590;2024-02-15T00:26:33;10.84;93.36
70246;SHT30;57637;49.272;8.590;2024-02-15T00:28:58;10.83;93.35
70246;SHT30;57637;49.272;8.590;2024-02-15T00:31:24;10.77;93.40
70246;SHT30;57637;49.272;8.590;2024-02-15T00:33:49;10.71;93.36
70246;SHT30;57637;49.272;8.590;2024-02-15T00:36:14;10.64;93.45
70246;SHT30;57637;49.272;8.590;2024-02-15T00:38:40;10.63;93.40
70246;SHT30;57637;49.272;8.590;2024-02-15T00:41:08;10.60;93.45
70246;SHT30;57637;49.272;8.590;2024-02-15T00:43:36;10.52;93.46
70246;SHT30;57637;49.272;8.590;2024-02-15T00:46:02;10.47;93.56
70246;SHT30;57637;49.272;8.590;2024-02-15T00:48:27;10.37;93.58
70246;SHT30;57637;49.272;8.590;2024-02-15T00:50:54;10.36;93.69
70246;SHT30;57637;49.272;8.590;2024-02-15T00:53:20;10.33;93.76
70246;SHT30;57637;49.272;8.590;2024-02-15T00:55:46;10.32;93.74
70246;SHT30;57637;49.272;8.590;2024-02-15T00:58:11;10.30;93.76
70246;SHT30;57637;49.272;8.590;2024-02-15T01:00:37;10.30;93.77
70246;SHT30;57637;49.272;8.590;2024-02-15T01:03:03;10.30;93.75
70246;SHT30;57637;49.272;8.590;2024-02-15T01:05:28;10.33;93.76
70246;SHT30;57637;49.272;8.590;2024-02-15T01:07:55;10.34;93.72
70246;SHT30;57637;49.272;8.590;2024-02-15T01:10:21;10.37;93.67
70246;SHT30;57637;49.272;8.590;2024-02-15T01:12:47;10.43;93.66
70246;SHT30;57637;49.272;8.590;2024-02-15T01:15:13;10.42;93.61
70246;SHT30;57637;49.272;8.590;2024-02-15T01:17:43;10.46;93.56
70246;SHT30;57637;49.272;8.590;2024-02-15T01:20:08;10.44;93.51
70246;SHT30;57637;49.272;8.590;2024-02-15T01:22:34;10.40;93.44
70246;SHT30;57637;49.272;8.590;2024-02-15T01:25:00;10.39;93.49
70246;SHT30;57637;49.272;8.590;2024-02-15T01:27:25;10.37;93.47
70246;SHT30;57637;49.272;8.590;2024-02-15T01:29:58;10.37;93.48
70246;SHT30;57637;49.272;8.590;2024-02-15T01:32:23;10.39;93.48
70246;SHT30;57637;49.272;8.590;2024-02-15T01:34:50;10.42;93.43
70246;SHT30;57637;49.272;8.590;2024-02-15T01:37:19;10.43;93.40
70246;SHT30;57637;49.272;8.590;2024-02-15T01:39:45;10.43;93.39
70246;SHT30;57637;49.272;8.590;2024-02-15T01:42:10;10.44;93.34
70246;SHT30;57637;49.272;8.590;2024-02-15T01:44:36;10.47;93.32
70246;SHT30;57637;49.272;8.590;2024-02-15T01:47:02;10.49;93.35
70246;SHT30;57637;49.272;8.590;2024-02-15T01:49:29;10.49;93.29
70246;SHT30;57637;49.272;8.590;2024-02-15T01:51:55;10.52;93.22
70246;SHT30;57637;49.272;8.590;2024-02-15T01:54:22;10.53;93.19
70246;SHT30;57637;49.272;8.590;2024-02-15T01:56:48;10.53;93.16
70246;SHT30;57637;49.272;8.590;2024-02-15T01:59:15;10.59;93.09
70246;SHT30;57637;49.272;8.590;2024-02-15T02:01:40;10.59;93.06
70246;SHT30;57637;49.272;8.590;2024-02-15T02:04:07;10.57;92.98
70246;SHT30;57637;49.272;8.590;2024-02-15T02:06:33;10.59;92.96
70246;SHT30;57637;49.272;8.590;2024-02-15T02:08:58;10.60;92.90
70246;SHT30;57637;49.272;8.590;2024-02-15T02:11:24;10.60;92.87
70246;SHT30;57637;49.272;8.590;2024-02-15T02:13:50;10.61;92.85
70246;SHT30;57637;49.272;8.590;2024-02-15T02:16:29;10.61;92.84
70246;SHT30;57637;49.272;8.590;2024-02-15T02:18:57;10.61;92.80
70246;SHT30;57637;49.272;8.590;2024-02-15T02:21:23;10.61;92.73
70246;SHT30;57637;49.272;8.590;2024-02-15T02:23:54;10.64;92.74
70246;SHT30;57637;49.272;8.590;2024-02-15T02:26:21;10.65;92.69
70246;SHT30;57637;49.272;8.590;2024-02-15T02:28:47;10.65;92.62
70246;SHT30;57637;49.272;8.590;2024-02-15T02:31:12;10.65;92.56
70246;SHT30;57637;49.272;8.590;2024-02-15T02:33:39;10.68;92.58
70246;SHT30;57637;49.272;8.590;2024-02-15T02:36:06;10.68;92.44
70246;SHT30;57637;49.272;8.590;2024-02-15T02:38:37;10.70;92.40
70246;SHT30;57637;49.272;8.590;2024-02-15T02:41:06;10.70;92.38
70246;SHT30;57637;49.272;8.590;2024-02-15T02:43:31;10.70;92.30
70246;SHT30;57637;49.272;8.590;2024-02-15T02:45:56;10.73;92.31
70246;SHT30;57637;49.272;8.590;2024-02-15T02:48:22;10.71;92.27
70246;SHT30;57637;49.272;8.590;2024-02-15T02:50:48;10.75;92.24
70246;SHT30;57637;49.272;8.590;2024-02-15T02:53:14;10.73;92.19
70246;SHT30;57637;49.272;8.590;2024-02-15T02:55:40;10.73;92.18
70246;SHT30;57637;49.272;8.590;2024-02-15T02:58:06;10.74;92.15
70246;SHT30;57637;49.272;8.590;2024-02-15T03:00:32;10.74;92.08
70246;SHT30;57637;49.272;8.590;2024-02-15T03:02:58;10.74;92.05
70246;SHT30;57637;49.272;8.590;2024-02-15T03:05:24;10.73;92.05
70246;SHT30;57637;49.272;8.590;2024-02-15T03:07:50;10.75;92.03
70246;SHT30;57637;49.272;8.590;2024-02-15T03:10:16;10.74;92.07
70246;SHT30;57637;49.272;8.590;2024-02-15T03:12:43;10.71;92.07
70246;SHT30;57637;49.272;8.590;2024-02-15T03:15:12;10.71;92.16
70246;SHT30;57637;49.272;8.590;2024-02-15T03:17:39;10.70;92.14
70246;SHT30;57637;49.272;8.590;2024-02-15T03:20:08;10.71;92.08
70246;SHT30;57637;49.272;8.590;2024-02-15T03:22:45;10.68;92.13
70246;SHT30;57637;49.272;8.590;2024-02-15T03:25:16;10.73;92.09
70246;SHT30;57637;49.272;8.590;2024-02-15T03:27:41;10.74;92.03
70246;SHT30;57637;49.272;8.590;2024-02-15T03:30:07;10.75;91.95
70246;SHT30;57637;49.272;8.590;2024-02-15T03:32:32;10.73;91.94
70246;SHT30;57637;49.272;8.590;2024-02-15T03:34:58;10.75;91.86
70246;SHT30;57637;49.272;8.590;2024-02-15T03:37:25;10.78;91.83
70246;SHT30;57637;49.272;8.590;2024-02-15T03:39:51;10.80;91.75
70246;SHT30;57637;49.272;8.590;2024-02-15T03:42:16;10.83;91.61
70246;SHT30;57637;49.272;8.590;2024-02-15T03:44:41;10.84;91.61
70246;SHT30;57637;49.272;8.590;2024-02-15T03:47:07;10.83;91.60
70246;SHT30;57637;49.272;8.590;2024-02-15T03:49:32;10.84;91.55
70246;SHT30;57637;49.272;8.590;2024-02-15T03:51:58;10.84;91.52
70246;SHT30;57637;49.272;8.590;2024-02-15T03:54:24;10.85;91.51
70246;SHT30;57637;49.272;8.590;2024-02-15T03:56:50;10.85;91.39
70246;SHT30;57637;49.272;8.590;2024-02-15T03:59:18;10.85;91.36
70246;SHT30;57637;49.272;8.590;2024-02-15T04:01:46;10.88;91.30
70246;SHT30;57637;49.272;8.590;2024-02-15T04:04:12;10.91;91.13
70246;SHT30;57637;49.272;8.590;2024-02-15T04:06:38;10.95;91.01
70246;SHT30;57637;49.272;8.590;2024-02-15T04:09:05;10.97;90.95
70246;SHT30;57637;49.272;8.590;2024-02-15T04:11:32;10.98;90.93
70246;SHT30;57637;49.272;8.590;2024-02-15T04:13:58;10.98;90.89
70246;SHT30;57637;49.272;8.590;2024-02-15T04:16:24;11.01;90.84
70246;SHT30;57637;49.272;8.590;2024-02-15T04:18:50;11.01;90.78
70246;SHT30;57637;49.272;8.590;2024-02-15T04:21:16;11.03;90.84
70246;SHT30;57637;49.272;8.590;2024-02-15T04:23:45;11.01;90.86
70246;SHT30;57637;49.272;8.590;2024-02-15T04:26:11;11.00;90.82
70246;SHT30;57637;49.272;8.590;2024-02-15T04:28:38;11.00;90.79
70246;SHT30;57637;49.272;8.590;2024-02-15T04:31:04;11.03;90.77
70246;SHT30;57637;49.272;8.590;2024-02-15T04:33:33;11.04;90.80
70246;SHT30;57637;49.272;8.590;2024-02-15T04:35:58;11.01;90.80
70246;SHT30;57637;49.272;8.590;2024-02-15T04:38:27;11.03;90.84
70246;SHT30;57637;49.272;8.590;2024-02-15T04:40:52;11.03;90.84
70246;SHT30;57637;49.272;8.590;2024-02-15T04:43:18;10.98;90.90
70246;SHT30;57637;49.272;8.590;2024-02-15T04:45:44;11.00;90.90
70246;SHT30;57637;49.272;8.590;2024-02-15T04:48:10;10.98;90.85
70246;SHT30;57637;49.272;8.590;2024-02-15T04:50:40;11.01;90.84
70246;SHT30;57637;49.272;8.590;2024-02-15T04:53:08;10.97;90.82
70246;SHT30;57637;49.272;8.590;2024-02-15T04:55:33;11.01;90.73
70246;SHT30;57637;49.272;8.590;2024-02-15T04:58:00;11.00;90.71
70246;SHT30;57637;49.272;8.590;2024-02-15T05:00:26;10.97;90.62
70246;SHT30;57637;49.272;8.590;2024-02-15T05:02:51;10.98;90.62
70246;SHT30;57637;49.272;8.590;2024-02-15T05:05:17;11.03;90.59
70246;SHT30;57637;49.272;8.590;2024-02-15T05:07:43;11.01;90.58
70246;SHT30;57637;49.272;8.590;2024-02-15T05:10:08;10.98;90.59
70246;SHT30;57637;49.272;8.590;2024-02-15T05:12:34;11.01;90.65
70246;SHT30;57637;49.272;8.590;2024-02-15T05:15:02;10.98;90.67
70246;SHT30;57637;49.272;8.590;2024-02-15T05:17:35;10.98;90.75
70246;SHT30;57637;49.272;8.590;2024-02-15T05:20:00;10.95;90.72
70246;SHT30;57637;49.272;8.590;2024-02-15T05:22:26;10.97;90.72
70246;SHT30;57637;49.272;8.590;2024-02-15T05:24:54;10.98;90.82
70246;SHT30;57637;49.272;8.590;2024-02-15T05:27:20;10.94;90.88
70246;SHT30;57637;49.272;8.590;2024-02-15T05:29:46;10.97;90.95
70246;SHT30;57637;49.272;8.590;2024-02-15T05:32:11;10.94;90.98
70246;SHT30;57637;49.272;8.590;2024-02-15T05:34:38;10.93;91.02
70246;SHT30;57637;49.272;8.590;2024-02-15T05:37:05;10.90;91.05
70246;SHT30;57637;49.272;8.590;2024-02-15T05:39:32;10.90;91.08
70246;SHT30;57637;49.272;8.590;2024-02-15T05:41:57;10.91;91.11
70246;SHT30;57637;49.272;8.590;2024-02-15T05:44:25;10.90;91.11
70246;SHT30;57637;49.272;8.590;2024-02-15T05:46:51;10.88;91.11
70246;SHT30;57637;49.272;8.590;2024-02-15T05:49:16;10.88;91.13
70246;SHT30;57637;49.272;8.590;2024-02-15T05:51:43;10.90;91.13
70246;SHT30;57637;49.272;8.590;2024-02-15T05:54:08;10.88;91.11
70246;SHT30;57637;49.272;8.590;2024-02-15T05:56:33;10.88;91.08
70246;SHT30;57637;49.272;8.590;2024-02-15T05:58:59;10.88;91.09
70246;SHT30;57637;49.272;8.590;2024-02-15T06:01:27;10.85;91.10
70246;SHT30;57637;49.272;8.590;2024-02-15T06:03:54;10.85;91.09
70246;SHT30;57637;49.272;8.590;2024-02-15T06:06:20;10.85;91.13
70246;SHT30;57637;49.272;8.590;2024-02-15T06:08:46;10.83;91.13
70246;SHT30;57637;49.272;8.590;2024-02-15T06:11:12;10.80;91.07
70246;SHT30;57637;49.272;8.590;2024-02-15T06:13:39;10.81;91.11
70246;SHT30;57637;49.272;8.590;2024-02-15T06:16:04;10.80;91.10
70246;SHT30;57637;49.272;8.590;2024-02-15T06:18:34;10.77;91.08
70246;SHT30;57637;49.272;8.590;2024-02-15T06:20:59;10.78;91.04
70246;SHT30;57637;49.272;8.590;2024-02-15T06:23:25;10.78;91.07
70246;SHT30;57637;49.272;8.590;2024-02-15T06:25:52;10.77;91.08
70246;SHT30;57637;49.272;8.590;2024-02-15T06:28:18;10.75;91.10
70246;SHT30;57637;49.272;8.590;2024-02-15T06:31:13;10.75;91.08
70246;SHT30;57637;49.272;8.590;2024-02-15T06:33:57;10.74;91.07
70246;SHT30;57637;49.272;8.590;2024-02-15T06:36:55;10.77;91.04
70246;SHT30;57637;49.272;8.590;2024-02-15T06:39:39;10.75;91.03
70246;SHT30;57637;49.272;8.590;2024-02-15T06:42:13;10.78;91.02
70246;SHT30;57637;49.272;8.590;2024-02-15T06:44:43;10.74;91.01
70246;SHT30;57637;49.272;8.590;2024-02-15T06:47:09;10.77;90.96
70246;SHT30;57637;49.272;8.590;2024-02-15T06:49:36;10.80;90.91
70246;SHT30;57637;49.272;8.590;2024-02-15T06:52:05;10.80;90.87
70246;SHT30;57637;49.272;8.590;2024-02-15T06:54:32;10.84;90.82
70246;SHT30;57637;49.272;8.590;2024-02-15T06:56:58;10.85;90.80
70246;SHT30;57637;49.272;8.590;2024-02-15T06:59:23;10.85;90.71
70246;SHT30;57637;49.272;8.590;2024-02-15T07:01:49;10.85;90.53
70246;SHT30;57637;49.272;8.590;2024-02-15T07:04:17;10.90;90.65
70246;SHT30;57637;49.272;8.590;2024-02-15T07:06:42;10.93;90.53
70246;SHT30;57637;49.272;8.590;2024-02-15T07:09:11;10.94;90.41
70246;SHT30;57637;49.272;8.590;2024-02-15T07:11:36;10.97;90.23
70246;SHT30;57637;49.272;8.590;2024-02-15T07:14:02;10.95;90.18
70246;SHT30;57637;49.272;8.590;2024-02-15T07:16:29;11.03;90.11
70246;SHT30;57637;49.272;8.590;2024-02-15T07:18:55;11.04;89.93
70246;SHT30;57637;49.272;8.590;2024-02-15T07:21:20;11.04;89.64
70246;SHT30;57637;49.272;8.590;2024-02-15T07:23:50;11.03;89.53
70246;SHT30;57637;49.272;8.590;2024-02-15T07:26:16;11.07;89.67
70246;SHT30;57637;49.272;8.590;2024-02-15T07:28:41;11.07;89.28
70246;SHT30;57637;49.272;8.590;2024-02-15T07:31:07;11.07;89.20
70246;SHT30;57637;49.272;8.590;2024-02-15T07:33:32;11.05;89.28
70246;SHT30;57637;49.272;8.590;2024-02-15T07:36:00;11.04;89.42
70246;SHT30;57637;49.272;8.590;2024-02-15T07:38:25;11.11;89.65
70246;SHT30;57637;49.272;8.590;2024-02-15T07:40:51;11.14;89.49
70246;SHT30;57637;49.272;8.590;2024-02-15T07:43:16;11.18;89.56
70246;SHT30;57637;49.272;8.590;2024-02-15T07:45:41;11.18;89.34
70246;SHT30;57637;49.272;8.590;2024-02-15T07:48:07;11.25;89.36
70246;SHT30;57637;49.272;8.590;2024-02-15T07:50:32;11.24;89.25
70246;SHT30;57637;49.272;8.590;2024-02-15T07:52:58;11.35;89.28
70246;SHT30;57637;49.272;8.590;2024-02-15T07:55:23;11.29;89.01
70246;SHT30;57637;49.272;8.590;2024-02-15T07:57:52;11.36;88.84
70246;SHT30;57637;49.272;8.590;2024-02-15T08:00:18;11.43;88.75
70246;SHT30;57637;49.272;8.590;2024-02-15T08:02:43;11.43;88.72
70246;SHT30;57637;49.272;8.590;2024-02-15T08:05:09;11.46;88.49
70246;SHT30;57637;49.272;8.590;2024-02-15T08:07:42;11.59;88.28
70246;SHT30;57637;49.272;8.590;2024-02-15T08:10:12;11.66;88.05
70246;SHT30;57637;49.272;8.590;2024-02-15T08:12:39;11.56;87.72
70246;SHT30;57637;49.272;8.590;2024-02-15T08:15:06;11.67;88.20
70246;SHT30;57637;49.272;8.590;2024-02-15T08:17:37;11.65;88.09
70246;SHT30;57637;49.272;8.590;2024-02-15T08:20:11;11.56;88.29
70246;SHT30;57637;49.272;8.590;2024-02-15T08:22:37;11.61;89.30
70246;SHT30;57637;49.272;8.590;2024-02-15T08:27:35;11.52;89.17
70246;SHT30;57637;49.272;8.590;2024-02-15T08:30:05;11.40;89.30
70246;SHT30;57637;49.272;8.590;2024-02-15T08:32:34;11.48;89.01
70246;SHT30;57637;49.272;8.590;2024-02-15T08:34:59;11.67;88.93
70246;SHT30;57637;49.272;8.590;2024-02-15T08:37:25;11.82;88.35
70246;SHT30;57637;49.272;8.590;2024-02-15T08:39:50;11.75;87.83
70246;SHT30;57637;49.272;8.590;2024-02-15T08:42:17;11.72;88.78
70246;SHT30;57637;49.272;8.590;2024-02-15T08:44:47;11.72;88.42
70246;SHT30;57637;49.272;8.590;2024-02-15T08:47:12;11.73;88.14
70246;SHT30;57637;49.272;8.590;2024-02-15T08:49:38;11.97;87.78
70246;SHT30;57637;49.272;8.590;2024-02-15T08:52:05;11.90;87.64
70246;SHT30;57637;49.272;8.590;2024-02-15T08:54:32;11.87;87.62
70246;SHT30;57637;49.272;8.590;2024-02-15T08:56:58;11.97;87.35
70246;SHT30;57637;49.272;8.590;2024-02-15T08:59:23;12.09;86.09
70246;SHT30;57637;49.272;8.590;2024-02-15T09:01:50;12.34;86.23
70246;SHT30;57637;49.272;8.590;2024-02-15T09:04:15;12.20;86.11
70246;SHT30;57637;49.272;8.590;2024-02-15T09:06:41;12.34;86.39
70246;SHT30;57637;49.272;8.590;2024-02-15T09:09:08;12.78;85.38
70246;SHT30;57637;49.272;8.590;2024-02-15T09:11:33;12.80;85.11
70246;SHT30;57637;49.272;8.590;2024-02-15T09:13:59;12.93;84.46
70246;SHT30;57637;49.272;8.590;2024-02-15T09:16:25;13.20;83.71
70246;SHT30;57637;49.272;8.590;2024-02-15T09:18:50;13.35;83.43
70246;SHT30;57637;49.272;8.590;2024-02-15T09:21:15;13.36;82.08
70246;SHT30;57637;49.272;8.590;2024-02-15T09:23:41;13.53;83.24
70246;SHT30;57637;49.272;8.590;2024-02-15T09:26:06;13.74;81.40
70246;SHT30;57637;49.272;8.590;2024-02-15T09:28:34;13.54;81.21
70246;SHT30;57637;49.272;8.590;2024-02-15T09:31:00;13.63;80.34
70246;SHT30;57637;49.272;8.590;2024-02-15T09:33:26;13.54;79.72
70246;SHT30;57637;49.272;8.590;2024-02-15T09:35:52;14.00;79.81
70246;SHT30;57637;49.272;8.590;2024-02-15T09:38:19;14.04;78.39
70246;SHT30;57637;49.272;8.590;2024-02-15T09:40:48;14.17;77.28
70246;SHT30;57637;49.272;8.590;2024-02-15T09:43:14;14.28;77.17
70246;SHT30;57637;49.272;8.590;2024-02-15T09:45:39;14.32;76.35
70246;SHT30;57637;49.272;8.590;2024-02-15T09:48:05;14.18;76.60
70246;SHT30;57637;49.272;8.590;2024-02-15T09:50:34;14.61;75.28
70246;SHT30;57637;49.272;8.590;2024-02-15T09:53:00;14.66;75.28
70246;SHT30;57637;49.272;8.590;2024-02-15T09:55:27;14.38;75.18
70246;SHT30;57637;49.272;8.590;2024-02-15T09:57:53;14.41;76.37
70246;SHT30;57637;49.272;8.590;2024-02-15T10:00:19;14.52;76.29
70246;SHT30;57637;49.272;8.590;2024-02-15T10:02:51;14.39;76.18
70246;SHT30;57637;49.272;8.590;2024-02-15T10:05:20;14.49;75.63
70246;SHT30;57637;49.272;8.590;2024-02-15T10:07:46;14.55;75.57
70246;SHT30;57637;49.272;8.590;2024-02-15T10:10:15;14.75;75.83
70246;SHT30;57637;49.272;8.590;2024-02-15T10:12:54;14.76;75.00
70246;SHT30;57637;49.272;8.590;2024-02-15T10:15:36;14.73;75.46
70246;SHT30;57637;49.272;8.590;2024-02-15T10:18:06;14.83;75.63
70246;SHT30;57637;49.272;8.590;2024-02-15T10:20:38;15.09;75.57
70246;SHT30;57637;49.272;8.590;2024-02-15T10:23:09;15.14;74.56
70246;SHT30;57637;49.272;8.590;2024-02-15T10:25:39;14.78;75.44
70246;SHT30;57637;49.272;8.590;2024-02-15T10:28:05;14.85;76.24
70246;SHT30;57637;49.272;8.590;2024-02-15T10:30:33;15.11;75.73
70246;SHT30;57637;49.272;8.590;2024-02-15T10:32:59;15.09;75.37
70246;SHT30;57637;49.272;8.590;2024-02-15T10:35:26;14.83;76.43
70246;SHT30;57637;49.272;8.590;2024-02-15T10:37:51;14.83;76.19
70246;SHT30;57637;49.272;8.590;2024-02-15T10:40:22;15.02;76.35
70246;SHT30;57637;49.272;8.590;2024-02-15T10:42:48;15.22;76.48
70246;SHT30;57637;49.272;8.590;2024-02-15T10:45:16;15.29;76.29
70246;SHT30;57637;49.272;8.590;2024-02-15T10:47:45;15.31;75.11
70246;SHT30;57637;49.272;8.590;2024-02-15T10:50:12;15.55;74.40
70246;SHT30;57637;49.272;8.590;2024-02-15T10:52:41;15.60;74.65
70246;SHT30;57637;49.272;8.590;2024-02-15T10:55:13;15.46;75.58
70246;SHT30;57637;49.272;8.590;2024-02-15T10:57:46;15.50;74.89
70246;SHT30;57637;49.272;8.590;2024-02-15T11:00:14;15.53;75.54
70246;SHT30;57637;49.272;8.590;2024-02-15T11:03:04;15.48;75.17
70246;SHT30;57637;49.272;8.590;2024-02-15T11:05:36;15.68;74.63
70246;SHT30;57637;49.272;8.590;2024-02-15T11:08:06;15.91;74.44
70246;SHT30;57637;49.272;8.590;2024-02-15T11:10:36;16.02;74.03
70246;SHT30;57637;49.272;8.590;2024-02-15T11:13:03;16.18;73.46
70246;SHT30;57637;49.272;8.590;2024-02-15T11:18:00;15.67;75.26
70246;SHT30;57637;49.272;8.590;2024-02-15T11:21:07;15.75;74.77
70246;SHT30;57637;49.272;8.590;2024-02-15T11:23:23;15.85;73.92
70246;SHT30;57637;49.272;8.590;2024-02-15T11:25:49;15.90;74.27
70246;SHT30;57637;49.272;8.590;2024-02-15T11:30:46;15.67;74.04
70246;SHT30;57637;49.272;8.590;2024-02-15T11:33:24;16.02;74.02
70246;SHT30;57637;49.272;8.590;2024-02-15T11:36:02;15.98;72.97
70246;SHT30;57637;49.272;8.590;2024-02-15T11:38:31;15.94;73.11
70246;SHT30;57637;49.272;8.590;2024-02-15T11:46:13;16.56;69.83
70246;SHT30;57637;49.272;8.590;2024-02-15T11:48:45;16.74;66.78
70246;SHT30;57637;49.272;8.590;2024-02-15T11:51:29;16.77;65.20
70246;SHT30;57637;49.272;8.590;2024-02-15T11:54:01;17.00;64.68
70246;SHT30;57637;49.272;8.590;2024-02-15T11:56:55;17.06;64.12
70246;SHT30;57637;49.272;8.590;2024-02-15T11:59:40;17.11;64.01
70246;SHT30;57637;49.272;8.590;2024-02-15T12:02:21;17.25;63.22
70246;SHT30;57637;49.272;8.590;2024-02-15T12:05:10;17.23;63.69
70246;SHT30;57637;49.272;8.590;2024-02-15T12:07:58;17.28;62.63
70246;SHT30;57637;49.272;8.590;2024-02-15T12:10:56;17.03;63.65
70246;SHT30;57637;49.272;8.590;2024-02-15T12:13:43;16.74;63.15
70246;SHT30;57637;49.272;8.590;2024-02-15T12:16:27;17.02;63.06
70246;SHT30;57637;49.272;8.590;2024-02-15T12:19:11;17.28;62.72
70246;SHT30;57637;49.272;8.590;2024-02-15T12:21:36;17.32;62.31
70246;SHT30;57637;49.272;8.590;2024-02-15T12:24:06;17.39;62.25
70246;SHT30;57637;49.272;8.590;2024-02-15T12:26:32;17.52;62.18
70246;SHT30;57637;49.272;8.590;2024-02-15T12:28:59;17.65;62.17
70246;SHT30;57637;49.272;8.590;2024-02-15T12:31:26;17.71;62.26
70246;SHT30;57637;49.272;8.590;2024-02-15T12:36:31;17.65;61.32
70246;SHT30;57637;49.272;8.590;2024-02-15T12:38:59;17.65;61.26
70246;SHT30;57637;49.272;8.590;2024-02-15T12:41:25;17.66;60.92
70246;SHT30;57637;49.272;8.590;2024-02-15T12:43:54;17.72;61.34
70246;SHT30;57637;49.272;8.590;2024-02-15T12:46:19;17.68;60.89
70246;SHT30;57637;49.272;8.590;2024-02-15T12:48:45;17.64;61.09
70246;SHT30;57637;49.272;8.590;2024-02-15T12:51:14;17.56;60.64
70246;SHT30;57637;49.272;8.590;2024-02-15T12:53:40;17.55;61.03
70246;SHT30;57637;49.272;8.590;2024-02-15T12:56:06;17.68;61.62
70246;SHT30;57637;49.272;8.590;2024-02-15T12:58:34;17.66;61.34
70246;SHT30;57637;49.272;8.590;2024-02-15T13:00:59;17.75;61.46
70246;SHT30;57637;49.272;8.590;2024-02-15T13:03:26;17.88;61.41
70246;SHT30;57637;49.272;8.590;2024-02-15T13:05:51;17.75;61.49
70246;SHT30;57637;49.272;8.590;2024-02-15T13:08:16;17.72;60.88
70246;SHT30;57637;49.272;8.590;2024-02-15T13:10:43;17.74;60.93
70246;SHT30;57637;49.272;8.590;2024-02-15T13:13:09;17.74;60.65
70246;SHT30;57637;49.272;8.590;2024-02-15T13:15:34;17.75;60.79
70246;SHT30;57637;49.272;8.590;2024-02-15T13:18:01;17.75;61.15
70246;SHT30;57637;49.272;8.590;2024-02-15T13:20:29;17.69;60.99
70246;SHT30;57637;49.272;8.590;2024-02-15T13:22:58;17.61;61.28
70246;SHT30;57637;49.272;8.590;2024-02-15T13:25:33;17.62;61.16
70246;SHT30;57637;49.272;8.590;2024-02-15T13:27:59;17.74;61.75
70246;SHT30;57637;49.272;8.590;2024-02-15T13:30:24;17.55;61.24
70246;SHT30;57637;49.272;8.590;2024-02-15T13:32:52;17.68;61.22
70246;SHT30;57637;49.272;8.590;2024-02-15T13:35:19;17.75;61.23
70246;SHT30;57637;49.272;8.590;2024-02-15T13:37:48;17.81;61.81
70246;SHT30;57637;49.272;8.590;2024-02-15T13:40:14;17.81;61.87
70246;SHT30;57637;49.272;8.590;2024-02-15T13:42:46;17.52;60.84
70246;SHT30;57637;49.272;8.590;2024-02-15T13:45:24;17.20;61.63
70246;SHT30;57637;49.272;8.590;2024-02-15T13:47:57;17.30;61.07
70246;SHT30;57637;49.272;8.590;2024-02-15T13:50:24;17.04;61.19
70246;SHT30;57637;49.272;8.590;2024-02-15T13:52:49;16.86;62.28
70246;SHT30;57637;49.272;8.590;2024-02-15T13:55:16;16.83;62.22
70246;SHT30;57637;49.272;8.590;2024-02-15T13:57:42;17.14;62.09
70246;SHT30;57637;49.272;8.590;2024-02-15T14:00:11;17.32;62.18
70246;SHT30;57637;49.272;8.590;2024-02-15T14:02:49;17.15;62.52
70246;SHT30;57637;49.272;8.590;2024-02-15T14:05:16;17.14;62.44
70246;SHT30;57637;49.272;8.590;2024-02-15T14:07:45;17.11;62.39
70246;SHT30;57637;49.272;8.590;2024-02-15T14:10:20;17.11;62.66
70246;SHT30;57637;49.272;8.590;2024-02-15T14:12:49;17.24;62.23
70246;SHT30;57637;49.272;8.590;2024-02-15T14:15:17;17.30;62.42
70246;SHT30;57637;49.272;8.590;2024-02-15T14:17:43;17.42;62.55
70246;SHT30;57637;49.272;8.590;2024-02-15T14:20:09;17.49;62.27
70246;SHT30;57637;49.272;8.590;2024-02-15T14:22:48;17.52;62.01
70246;SHT30;57637;49.272;8.590;2024-02-15T14:25:15;17.61;62.05
70246;SHT30;57637;49.272;8.590;2024-02-15T14:27:41;17.39;61.87
70246;SHT30;57637;49.272;8.590;2024-02-15T14:30:07;17.39;62.28
70246;SHT30;57637;49.272;8.590;2024-02-15T14:32:51;17.41;61.35
70246;SHT30;57637;49.272;8.590;2024-02-15T14:35:30;17.25;62.04
70246;SHT30;57637;49.272;8.590;2024-02-15T14:37:59;17.10;61.92
70246;SHT30;57637;49.272;8.590;2024-02-15T14:40:27;17.11;62.50
70246;SHT30;57637;49.272;8.590;2024-02-15T14:42:53;17.00;62.78
70246;SHT30;57637;49.272;8.590;2024-02-15T14:45:19;16.90;63.37
70246;SHT30;57637;49.272;8.590;2024-02-15T14:47:44;16.86;63.38
70246;SHT30;57637;49.272;8.590;2024-02-15T14:50:10;16.77;63.91
70246;SHT30;57637;49.272;8.590;2024-02-15T14:52:38;16.76;63.61
70246;SHT30;57637;49.272;8.590;2024-02-15T14:55:03;16.83;64.59
70246;SHT30;57637;49.272;8.590;2024-02-15T14:57:30;16.86;65.36
70246;SHT30;57637;49.272;8.590;2024-02-15T14:59:57;16.64;66.20
70246;SHT30;57637;49.272;8.590;2024-02-15T15:02:22;16.60;66.57
70246;SHT30;57637;49.272;8.590;2024-02-15T15:04:47;16.55;66.66
70246;SHT30;57637;49.272;8.590;2024-02-15T15:07:48;16.52;66.54
70246;SHT30;57637;49.272;8.590;2024-02-15T15:10:32;16.52;66.26
70246;SHT30;57637;49.272;8.590;2024-02-15T15:13:15;16.42;66.41
70246;SHT30;57637;49.272;8.590;2024-02-15T15:15:42;16.36;66.47
70246;SHT30;57637;49.272;8.590;2024-02-15T15:18:08;16.30;66.61
70246;SHT30;57637;49.272;8.590;2024-02-15T15:20:34;16.34;66.79
70246;SHT30;57637;49.272;8.590;2024-02-15T15:23:00;16.36;66.33
70246;SHT30;57637;49.272;8.590;2024-02-15T15:25:26;16.36;65.41
70246;SHT30;57637;49.272;8.590;2024-02-15T15:27:53;16.34;66.04
70246;SHT30;57637;49.272;8.590;2024-02-15T15:30:19;16.33;66.75
70246;SHT30;57637;49.272;8.590;2024-02-15T15:32:45;16.21;67.23
70246;SHT30;57637;49.272;8.590;2024-02-15T15:35:11;16.18;67.39
70246;SHT30;57637;49.272;8.590;2024-02-15T15:37:38;16.16;67.36
70246;SHT30;57637;49.272;8.590;2024-02-15T15:40:04;16.13;67.17
70246;SHT30;57637;49.272;8.590;2024-02-15T15:42:33;16.12;67.41
70246;SHT30;57637;49.272;8.590;2024-02-15T15:45:00;16.04;67.34
70246;SHT30;57637;49.272;8.590;2024-02-15T15:47:25;16.01;67.43
70246;SHT30;57637;49.272;8.590;2024-02-15T15:49:51;15.94;67.55
70246;SHT30;57637;49.272;8.590;2024-02-15T15:52:17;15.94;67.91